Time;durP1;ratioP1;P1;durP2;ratioP2;P2;SDS_P1;SDS_P2;PMS_P1;PMS_P2;Temp;Humidity;BMP_temperature;BMP_pressure;BME280_temperature;BME280_humidity;BME280_pressure;Samples;Min_cycle;Max_cycle;Signal;HPM_P1;HPM_P2
2021/04/05 00:02:20;;;;;;;33.50;14.57;;;6.90;99.90;;;;;;5094448;28;20063;-74
2021/04/05 00:04:46;;;;;;;33.70;14.80;;;6.60;99.90;;;;;;5093898;28;20147;-74
2021/04/05 00:07:12;;;;;;;36.58;13.55;;;6.70;99.90;;;;;;5094097;28;20484;-74
2021/04/05 00:09:40;;;;;;;35.75;14.75;;;6.70;99.90;;;;;;5094160;28;20040;-74
2021/04/05 00:12:08;;;;;;;34.97;14.25;;;6.70;99.90;;;;;;5094028;28;20066;-74
2021/04/05 00:14:34;;;;;;;32.75;13.40;;;6.80;99.90;;;;;;5075980;28;20036;-74
2021/04/05 00:17:00;;;;;;;38.88;15.68;;;6.80;99.90;;;;;;5093993;28;20032;-74
2021/04/05 00:19:26;;;;;;;46.80;14.85;;;6.80;99.90;;;;;;5075829;28;20093;-74
2021/04/05 00:21:52;;;;;;;38.42;14.25;;;6.80;99.90;;;;;;5042762;28;20468;-74
2021/04/05 00:24:21;;;;;;;36.03;14.43;;;6.80;99.90;;;;;;5075973;28;20038;-74
2021/04/05 00:26:47;;;;;;;40.33;14.10;;;6.80;99.90;;;;;;5075458;28;20541;-74
2021/04/05 00:29:13;;;;;;;43.67;14.25;;;7.00;99.90;;;;;;5075888;28;20040;-74
2021/04/05 00:31:40;;;;;;;38.28;14.48;;;6.90;99.90;;;;;;5093613;28;20036;-74
2021/04/05 00:34:06;;;;;;;46.85;14.23;;;6.90;99.90;;;;;;5093775;28;20036;-74
2021/04/05 00:36:32;;;;;;;37.83;13.57;;;7.20;99.90;;;;;;5093468;28;20052;-74
2021/04/05 00:38:58;;;;;;;41.75;14.07;;;6.90;99.90;;;;;;5093475;28;20105;-74
2021/04/05 00:41:25;;;;;;;38.17;13.93;;;6.90;99.90;;;;;;5075079;28;20129;-74
2021/04/05 00:43:51;;;;;;;37.78;14.52;;;7.00;99.90;;;;;;5075381;28;20032;-74
2021/04/05 00:46:23;;;;;;;37.95;14.10;;;7.00;99.90;;;;;;5058681;28;20517;-74
2021/04/05 00:48:50;;;;;;;40.45;14.88;;;7.00;99.90;;;;;;5093028;28;20031;-74
2021/04/05 00:51:22;;;;;;;43.83;14.52;;;7.00;99.90;;;;;;5093411;28;20047;-74
2021/04/05 00:53:49;;;;;;;39.95;13.40;;;7.10;99.90;;;;;;5093098;28;20032;-74
2021/04/05 00:56:18;;;;;;;41.53;14.25;;;7.10;99.90;;;;;;5093301;28;20052;-74
2021/04/05 00:58:44;;;;;;;46.67;14.00;;;7.20;99.90;;;;;;5093003;28;20422;-74
2021/04/05 01:01:13;;;;;;;41.03;13.85;;;7.20;99.90;;;;;;5092972;28;20032;-74
2021/04/05 01:03:43;;;;;;;51.70;15.05;;;7.20;99.90;;;;;;5074914;28;20047;-74
2021/04/05 01:06:11;;;;;;;38.08;13.63;;;7.30;99.90;;;;;;5092778;28;20068;-74
2021/04/05 01:08:37;;;;;;;44.05;13.63;;;7.30;99.90;;;;;;5092804;28;20100;-74
2021/04/05 01:11:05;;;;;;;42.05;13.60;;;7.40;99.90;;;;;;5092996;28;20036;-74
2021/04/05 01:13:31;;;;;;;37.88;13.50;;;7.40;99.90;;;;;;5092996;28;20483;-74
2021/04/05 01:15:56;;;;;;;43.25;14.35;;;7.40;99.90;;;;;;5074570;28;20036;-74
2021/04/05 01:18:22;;;;;;;39.20;13.10;;;7.70;99.90;;;;;;5074812;28;20036;-74
2021/04/05 01:20:48;;;;;;;39.05;12.10;;;7.50;99.90;;;;;;5092767;28;20114;-74
2021/04/05 01:23:16;;;;;;;44.95;13.10;;;7.50;99.90;;;;;;5092708;28;20043;-74
2021/04/05 01:25:44;;;;;;;37.35;12.68;;;7.60;99.90;;;;;;5092844;28;20495;-74
2021/04/05 01:28:10;;;;;;;39.40;12.43;;;7.60;99.90;;;;;;5092527;28;20032;-74
2021/04/05 01:30:44;;;;;;;39.53;14.15;;;7.80;99.90;;;;;;5074619;28;20345;-74
2021/04/05 01:33:25;;;;;;;39.80;13.93;;;7.60;99.70;;;;;;5092470;28;20092;-74
2021/04/05 01:35:52;;;;;;;33.45;12.30;;;7.60;99.70;;;;;;5092453;28;20039;-74
2021/04/05 01:38:25;;;;;;;36.67;13.70;;;7.70;99.70;;;;;;5092482;28;20055;-74
2021/04/05 01:41:28;;;;;;;33.22;12.02;;;7.70;99.60;;;;;;5092662;28;20416;-74
2021/04/05 01:43:54;;;;;;;38.00;11.90;;;7.70;99.50;;;;;;5092674;28;20107;-74
2021/04/05 01:46:21;;;;;;;39.42;13.10;;;7.70;99.50;;;;;;5092568;28;20115;-74
2021/04/05 01:48:47;;;;;;;36.28;12.68;;;7.70;99.50;;;;;;5092385;28;20028;-74
2021/04/05 01:51:18;;;;;;;35.95;12.15;;;7.70;99.40;;;;;;5074462;28;20048;-74
2021/04/05 01:53:46;;;;;;;44.72;12.98;;;7.80;99.40;;;;;;5091746;28;20035;-74
2021/04/05 01:56:13;;;;;;;40.17;13.27;;;7.70;99.30;;;;;;5074587;28;20039;-74
2021/04/05 01:58:42;;;;;;;36.92;11.52;;;7.70;99.30;;;;;;5092296;28;20048;-74
2021/04/05 02:01:10;;;;;;;34.83;11.95;;;8.00;99.30;;;;;;5092446;28;20156;-74
2021/04/05 02:03:37;;;;;;;38.08;12.13;;;7.70;99.10;;;;;;5092369;28;20050;-74
2021/04/05 02:06:14;;;;;;;33.67;11.50;;;7.70;99.10;;;;;;5092431;28;20499;-74
2021/04/05 02:08:41;;;;;;;39.97;12.30;;;7.80;99.00;;;;;;5092205;28;20051;-74
2021/04/05 02:11:13;;;;;;;37.63;10.48;;;7.90;99.00;;;;;;5086629;28;20071;-74
2021/04/05 02:13:40;;;;;;;36.85;11.07;;;7.70;98.80;;;;;;5072179;28;20107;-74
2021/04/05 02:16:06;;;;;;;41.75;9.93;;;7.70;98.70;;;;;;5054237;28;20064;-74
2021/04/05 02:18:32;;;;;;;30.48;9.95;;;7.70;98.60;;;;;;5071917;28;20039;-74
2021/04/05 02:20:58;;;;;;;31.10;10.18;;;7.70;98.60;;;;;;5054066;28;20036;-74
2021/04/05 02:23:25;;;;;;;38.70;10.55;;;7.70;98.70;;;;;;5072028;28;20036;-74
2021/04/05 02:26:07;;;;;;;32.47;9.50;;;7.70;99.10;;;;;;5053967;28;20040;-74
2021/04/05 02:28:53;;;;;;;33.22;10.55;;;7.70;99.80;;;;;;5072147;28;20465;-74
2021/04/05 02:31:24;;;;;;;32.20;10.05;;;7.60;99.90;;;;;;5071869;28;20036;-74
2021/04/05 02:33:54;;;;;;;38.45;10.90;;;7.60;99.90;;;;;;5072070;28;20051;-74
2021/04/05 02:36:26;;;;;;;29.55;10.27;;;7.50;99.90;;;;;;5071839;28;20028;-74
2021/04/05 02:38:57;;;;;;;38.17;10.60;;;7.50;99.90;;;;;;5054226;28;20057;-74
2021/04/05 02:41:25;;;;;;;34.95;10.02;;;7.60;99.90;;;;;;5053929;28;20756;-74
2021/04/05 02:43:52;;;;;;;32.50;9.52;;;7.40;99.90;;;;;;5072046;28;20036;-74
2021/04/05 02:46:28;;;;;;;29.83;9.43;;;7.40;99.90;;;;;;5071691;28;20189;-74
2021/04/05 02:48:57;;;;;;;34.92;9.50;;;8.00;99.90;;;;;;5071852;28;20036;-74
2021/04/05 02:51:24;;;;;;;26.40;9.45;;;7.40;99.90;;;;;;5071795;28;20404;-73
2021/04/05 02:54:04;;;;;;;29.90;9.80;;;7.40;99.90;;;;;;5071857;28;20037;-74
2021/04/05 02:56:30;;;;;;;28.48;9.13;;;7.40;99.90;;;;;;5071651;28;20124;-74
2021/04/05 02:58:57;;;;;;;31.38;9.00;;;7.40;99.90;;;;;;5053948;28;20036;-73
2021/04/05 03:01:25;;;;;;;30.40;9.07;;;7.40;99.90;;;;;;5071664;28;20033;-74
2021/04/05 03:03:58;;;;;;;33.20;9.73;;;7.40;99.90;;;;;;5071630;28;20043;-73
2021/04/05 03:06:26;;;;;;;40.72;9.35;;;7.40;99.90;;;;;;5074221;28;20075;-74
2021/04/05 03:08:53;;;;;;;24.95;8.50;;;7.60;99.90;;;;;;5057394;28;20481;-73
2021/04/05 03:11:21;;;;;;;28.15;8.38;;;7.60;99.90;;;;;;5075145;28;20043;-74
2021/04/05 03:13:48;;;;;;;29.17;8.80;;;7.50;99.90;;;;;;5074989;28;20040;-74
2021/04/05 03:16:17;;;;;;;27.25;8.82;;;7.50;99.90;;;;;;5075168;28;20032;-74
2021/04/05 03:18:45;;;;;;;21.33;5.22;;;7.50;99.90;;;;;;5074742;28;20040;-72
2021/04/05 03:21:12;;;;;;;21.52;4.18;;;7.30;99.90;;;;;;5057193;28;20040;-72
2021/04/05 03:23:40;;;;;;;18.95;3.75;;;7.10;99.90;;;;;;5075212;28;20044;-71
2021/04/05 03:26:06;;;;;;;20.88;3.80;;;6.80;99.90;;;;;;5074844;28;20402;-72
2021/04/05 03:28:32;;;;;;;24.10;4.15;;;6.60;99.90;;;;;;5074917;28;20424;-72
2021/04/05 03:31:19;;;;;;;18.30;3.53;;;6.50;99.90;;;;;;5074646;28;20041;-72
2021/04/05 03:33:52;;;;;;;16.50;3.13;;;6.50;99.90;;;;;;5074745;28;20048;-72
2021/04/05 03:36:31;;;;;;;24.55;3.38;;;6.80;99.90;;;;;;5056640;28;20672;-74
2021/04/05 03:38:59;;;;;;;23.90;3.75;;;6.30;99.90;;;;;;5074587;28;20028;-72
2021/04/05 03:41:37;;;;;;;22.98;4.20;;;6.30;99.90;;;;;;5056654;28;20033;-72
2021/04/05 03:44:20;;;;;;;17.98;3.25;;;6.30;99.90;;;;;;5074574;28;20044;-71
2021/04/05 03:46:47;;;;;;;14.68;2.78;;;6.30;99.90;;;;;;5074525;28;20453;-71
2021/04/05 03:49:32;;;;;;;11.73;2.08;;;6.20;99.90;;;;;;5070682;28;20117;-72
2021/04/05 03:52:09;;;;;;;16.40;2.53;;;6.00;99.90;;;;;;5074510;28;20400;-73
2021/04/05 03:54:59;;;;;;;11.88;1.70;;;6.00;99.90;;;;;;5074272;28;20476;-71
2021/04/05 03:57:31;;;;;;;14.30;1.60;;;5.70;99.90;;;;;;5074234;28;20056;-72
2021/04/05 03:59:57;;;;;;;12.50;1.60;;;6.00;99.90;;;;;;5056240;28;20047;-74
2021/04/05 04:02:33;;;;;;;9.10;1.48;;;5.70;99.90;;;;;;5074295;28;20396;-74
2021/04/05 04:05:07;;;;;;;;;;;5.70;99.90;;;;;;5056576;28;20068;-74
2021/04/05 04:07:41;;;;;;;12.13;2.00;;;5.60;99.90;;;;;;5074053;28;19924;-74
2021/04/05 04:10:11;;;;;;;8.30;1.55;;;5.90;99.90;;;;;;5074003;28;20094;-73
2021/04/05 04:12:40;;;;;;;8.55;1.85;;;5.60;99.90;;;;;;5074164;28;20177;-72
2021/04/05 04:15:07;;;;;;;7.60;1.55;;;5.60;99.90;;;;;;5073906;28;20481;-71
2021/04/05 04:17:35;;;;;;;8.32;1.40;;;5.40;99.90;;;;;;5073477;28;20037;-72
2021/04/05 04:20:07;;;;;;;6.75;1.63;;;5.30;99.90;;;;;;5055664;28;20090;-72
2021/04/05 04:22:34;;;;;;;9.00;1.13;;;5.10;99.90;;;;;;5073673;28;20536;-72
2021/04/05 04:25:01;;;;;;;7.88;1.42;;;5.40;99.90;;;;;;5055960;28;20056;-73
2021/04/05 04:27:27;;;;;;;8.20;1.23;;;4.90;99.90;;;;;;5073777;28;20085;-74
2021/04/05 04:29:54;;;;;;;5.10;1.13;;;4.80;99.90;;;;;;5073709;28;20037;-73
2021/04/05 04:32:21;;;;;;;4.82;1.13;;;4.70;99.90;;;;;;5055717;28;20048;-74
2021/04/05 04:34:47;;;;;;;6.28;1.27;;;4.80;99.90;;;;;;5073467;28;20040;-74
2021/04/05 04:37:14;;;;;;;3.67;0.98;;;4.70;99.90;;;;;;5073483;28;20040;-73
2021/04/05 04:39:40;;;;;;;9.05;1.15;;;4.60;99.90;;;;;;5073293;28;20040;-74
2021/04/05 04:42:06;;;;;;;6.32;1.10;;;4.60;99.90;;;;;;5073425;28;20503;-74
2021/04/05 04:44:32;;;;;;;5.78;1.05;;;4.60;99.90;;;;;;5073212;28;20029;-74
2021/04/05 04:46:58;;;;;;;9.52;1.35;;;4.60;99.90;;;;;;5073598;28;20036;-74
2021/04/05 04:49:24;;;;;;;8.80;1.40;;;4.60;99.90;;;;;;5073146;28;20113;-73
2021/04/05 04:51:50;;;;;;;4.93;1.05;;;4.60;99.90;;;;;;5073422;28;20492;-73
2021/04/05 04:54:16;;;;;;;4.35;1.20;;;4.50;99.90;;;;;;5073078;28;20037;-73
2021/04/05 04:56:42;;;;;;;8.45;0.80;;;4.40;99.90;;;;;;5073048;28;20037;-73
2021/04/05 04:59:10;;;;;;;10.32;1.25;;;4.50;99.90;;;;;;5073166;28;20040;-73
2021/04/05 05:01:40;;;;;;;6.00;1.27;;;4.20;99.90;;;;;;5054982;28;20044;-73
2021/04/05 05:04:15;;;;;;;6.90;1.30;;;4.10;99.90;;;;;;5073301;28;20477;-73
2021/04/05 05:06:42;;;;;;;7.78;1.20;;;4.10;99.90;;;;;;5072787;28;20033;-74
2021/04/05 05:09:08;;;;;;;5.70;1.08;;;4.10;99.90;;;;;;5072923;28;20041;-74
2021/04/05 05:11:35;;;;;;;6.50;1.30;;;4.10;99.90;;;;;;5072672;28;20050;-74
2021/04/05 05:14:01;;;;;;;7.00;1.77;;;4.00;99.90;;;;;;5054782;28;20408;-74
2021/04/05 05:16:28;;;;;;;6.30;1.40;;;4.00;99.90;;;;;;5072931;28;20032;-74
2021/04/05 05:18:56;;;;;;;14.43;1.42;;;4.00;99.90;;;;;;5072646;28;20031;-74
2021/04/05 05:21:29;;;;;;;12.63;1.40;;;3.90;99.90;;;;;;5072677;28;20036;-74
2021/04/05 05:24:00;;;;;;;11.48;1.35;;;3.90;99.90;;;;;;5072602;28;20095;-72
2021/04/05 05:26:27;;;;;;;9.25;1.40;;;4.00;99.90;;;;;;5072725;28;20115;-72
2021/04/05 05:28:56;;;;;;;11.32;1.40;;;4.00;99.90;;;;;;5071706;28;20098;-72
2021/04/05 05:31:22;;;;;;;9.73;1.60;;;3.90;99.90;;;;;;5054694;28;20075;-74
2021/04/05 05:33:49;;;;;;;11.05;1.70;;;3.90;99.90;;;;;;5072713;28;20071;-74
2021/04/05 05:36:18;;;;;;;6.97;1.20;;;3.80;99.90;;;;;;5054683;28;20041;-73
2021/04/05 05:38:44;;;;;;;5.18;1.10;;;3.70;99.90;;;;;;5072348;28;20032;-72
2021/04/05 05:41:21;;;;;;;10.38;1.67;;;3.60;99.90;;;;;;5072259;28;20025;-72
2021/04/05 05:43:57;;;;;;;10.48;1.70;;;3.60;99.90;;;;;;5072439;28;20072;-72
2021/04/05 05:46:37;;;;;;;;;;;3.60;99.90;;;;;;5072794;28;20033;-72
2021/04/05 05:49:21;;;;;;;13.15;1.30;;;3.60;99.90;;;;;;5072184;28;19966;-72
2021/04/05 05:51:56;;;;;;;15.82;1.73;;;3.60;99.90;;;;;;5057907;28;20051;-71
2021/04/05 05:55:02;;;;;;;15.05;1.95;;;3.60;99.90;;;;;;5072281;28;20036;-71
2021/04/05 05:57:38;;;;;;;10.82;1.85;;;3.60;99.90;;;;;;5072337;28;20033;-71
2021/04/05 06:00:06;;;;;;;16.40;1.67;;;3.70;99.90;;;;;;5071996;28;20044;-71
2021/04/05 06:02:48;;;;;;;16.52;2.03;;;3.70;99.90;;;;;;5072311;28;20102;-71
2021/04/05 06:05:45;;;;;;;20.48;2.53;;;3.70;99.90;;;;;;5072071;28;20110;-72
2021/04/05 06:08:16;;;;;;;17.38;2.40;;;3.70;99.90;;;;;;5072212;28;20451;-71
2021/04/05 06:11:14;;;;;;;13.88;2.38;;;3.70;99.90;;;;;;5072160;28;20476;-72
2021/04/05 06:14:03;;;;;;;11.27;1.77;;;3.70;99.90;;;;;;5039314;28;20050;-72
2021/04/05 06:16:36;;;;;;;14.18;2.45;;;3.80;99.60;;;;;;5072226;28;20186;-73
2021/04/05 06:19:26;;;;;;;23.95;2.72;;;3.80;99.70;;;;;;5057813;28;20032;-72
2021/04/05 06:22:24;;;;;;;20.80;2.85;;;3.80;98.80;;;;;;5072211;28;20162;-72
2021/04/05 06:25:07;;;;;;;19.48;2.80;;;3.80;97.00;;;;;;5072077;28;20041;-72
2021/04/05 06:27:54;;;;;;;17.48;4.05;;;3.90;96.40;;;;;;5072062;28;20047;-72
2021/04/05 06:30:29;;;;;;;22.52;3.42;;;3.90;96.10;;;;;;5066430;28;20043;-72
2021/04/05 06:33:06;;;;;;;13.30;2.25;;;3.90;96.00;;;;;;5072418;28;20033;-72
2021/04/05 06:35:57;;;;;;;25.67;3.05;;;3.80;94.80;;;;;;5071792;28;20036;-72
2021/04/05 06:38:43;;;;;;;18.50;2.72;;;3.90;94.60;;;;;;5071634;28;20069;-72
2021/04/05 06:41:37;;;;;;;13.50;2.70;;;3.80;93.90;;;;;;5075573;28;20087;-72
2021/04/05 06:44:40;;;;;;;26.55;3.47;;;3.80;93.90;;;;;;5075586;28;20036;-72
2021/04/05 06:47:38;;;;;;;18.30;2.67;;;3.80;95.50;;;;;;5075491;28;20542;-72
2021/04/05 06:50:31;;;;;;;18.95;2.45;;;3.60;97.50;;;;;;5075338;28;20133;-72
2021/04/05 06:53:21;;;;;;;20.35;3.10;;;3.60;98.10;;;;;;5075244;28;20037;-73
2021/04/05 06:55:49;;;;;;;18.92;2.95;;;3.50;98.40;;;;;;5075518;28;20037;-73
2021/04/05 06:58:21;;;;;;;8.88;1.88;;;3.40;98.40;;;;;;5075244;28;20472;-73
2021/04/05 07:01:11;;;;;;;14.93;2.03;;;3.50;98.30;;;;;;5075238;28;20048;-73
2021/04/05 07:03:48;;;;;;;13.93;1.80;;;3.50;97.50;;;;;;5075362;28;20036;-73
2021/04/05 07:06:35;;;;;;;6.60;1.60;;;3.50;96.70;;;;;;5088986;28;20093;-73
2021/04/05 07:09:25;;;;;;;10.90;1.58;;;3.40;96.60;;;;;;5075130;28;20047;-73
2021/04/05 07:12:28;;;;;;;8.95;1.38;;;3.40;96.10;;;;;;5056940;28;20048;-73
2021/04/05 07:15:13;;;;;;;7.50;1.42;;;3.50;95.60;;;;;;5074798;28;20041;-73
2021/04/05 07:17:54;;;;;;;11.00;1.67;;;3.60;96.60;;;;;;5057112;28;20043;-73
2021/04/05 07:20:59;;;;;;;8.60;1.45;;;3.70;96.40;;;;;;5078788;28;20117;-73
2021/04/05 07:23:45;;;;;;;6.85;1.38;;;3.80;95.90;;;;;;5074741;28;20040;-73
2021/04/05 07:26:23;;;;;;;;;;;3.80;95.10;;;;;;5075205;28;20120;-73
2021/04/05 07:29:10;;;;;;;9.48;1.88;;;3.90;95.50;;;;;;5074702;28;19916;-73
2021/04/05 07:31:58;;;;;;;15.38;1.95;;;3.70;97.20;;;;;;5074722;28;20062;-73
2021/04/05 07:35:01;;;;;;;14.23;2.00;;;3.60;98.30;;;;;;5074469;28;20040;-73
2021/04/05 07:37:48;;;;;;;15.07;2.08;;;3.40;98.90;;;;;;5074330;28;20040;-73
2021/04/05 07:40:41;;;;;;;8.93;2.00;;;3.20;99.10;;;;;;5074397;28;20097;-72
2021/04/05 07:43:35;;;;;;;13.98;1.30;;;3.00;99.50;;;;;;5074405;28;20056;-72
2021/04/05 07:46:21;;;;;;;10.43;1.38;;;2.60;99.90;;;;;;5073755;28;20546;-72
2021/04/05 07:49:23;;;;;;;8.15;1.42;;;2.10;99.90;;;;;;5074298;28;20036;-72
2021/04/05 07:51:58;;;;;;;8.20;1.83;;;1.70;99.90;;;;;;5039580;28;20044;-71
2021/04/05 07:54:27;;;;;;;13.75;2.83;;;1.70;99.90;;;;;;5074306;28;20037;-71
2021/04/05 07:57:15;;;;;;;15.80;2.53;;;1.80;99.90;;;;;;5056247;28;20040;-71
2021/04/05 07:59:48;;;;;;;13.75;2.50;;;1.90;99.80;;;;;;5073961;28;20040;-71
2021/04/05 08:02:56;;;;;;;20.73;3.15;;;2.00;98.70;;;;;;5074214;28;20048;-71
2021/04/05 08:05:43;;;;;;;16.00;2.60;;;2.10;97.70;;;;;;5059285;28;20123;-71
2021/04/05 08:08:39;;;;;;;19.38;2.90;;;2.20;97.10;;;;;;5056587;28;20047;-71
2021/04/05 08:11:18;;;;;;;21.60;2.70;;;2.20;97.60;;;;;;5074082;28;20045;-71
2021/04/05 08:14:08;;;;;;;19.75;2.60;;;2.20;96.60;;;;;;5073812;28;20446;-71
2021/04/05 08:16:52;;;;;;;17.88;3.05;;;2.20;96.80;;;;;;5074628;28;20044;-71
2021/04/05 08:19:29;;;;;;;20.55;3.50;;;2.20;97.10;;;;;;5084672;28;20062;-71
2021/04/05 08:22:10;;;;;;;17.33;2.95;;;2.20;97.40;;;;;;5073794;28;20382;-72
2021/04/05 08:24:41;;;;;;;22.92;3.42;;;2.20;97.00;;;;;;5073715;28;20036;-71
2021/04/05 08:27:16;;;;;;;18.88;3.60;;;2.30;97.20;;;;;;5055918;28;20401;-71
2021/04/05 08:30:05;;;;;;;18.27;2.83;;;2.30;96.60;;;;;;5073801;28;20039;-72
2021/04/05 08:32:57;;;;;;;16.40;2.78;;;2.40;96.70;;;;;;5073774;28;20032;-72
2021/04/05 08:35:45;;;;;;;22.70;3.25;;;2.40;95.40;;;;;;5073663;28;20036;-72
2021/04/05 08:38:29;;;;;;;20.63;3.17;;;2.60;95.80;;;;;;5073957;28;20480;-71
2021/04/05 08:40:58;;;;;;;18.15;3.22;;;2.80;94.40;;;;;;5077729;28;20125;-72
2021/04/05 08:43:42;;;;;;;24.90;4.57;;;2.80;93.00;;;;;;5087974;28;20469;-73
2021/04/05 08:46:38;;;;;;;18.02;3.10;;;2.90;90.40;;;;;;5073107;28;20032;-72
2021/04/05 08:49:08;;;;;;;20.50;2.78;;;2.90;91.80;;;;;;5060306;28;20059;-72
2021/04/05 08:51:40;;;;;;;19.52;3.25;;;2.70;93.80;;;;;;5073203;28;20090;-72
2021/04/05 08:54:07;;;;;;;13.82;2.40;;;2.60;94.50;;;;;;5073257;28;20520;-72
2021/04/05 08:57:02;;;;;;;13.30;2.40;;;2.50;93.30;;;;;;5073007;28;20056;-73
2021/04/05 08:59:33;;;;;;;8.88;2.08;;;2.40;92.50;;;;;;5073037;28;20436;-73
2021/04/05 09:02:12;;;;;;;14.35;2.30;;;2.50;92.70;;;;;;5055149;28;20062;-73
2021/04/05 09:04:40;;;;;;;13.30;2.65;;;2.60;91.00;;;;;;5072629;28;20059;-72
2021/04/05 09:07:30;;;;;;;11.65;2.10;;;2.60;91.90;;;;;;5055272;28;20037;-73
2021/04/05 09:10:03;;;;;;;8.70;1.83;;;2.50;90.70;;;;;;5068380;28;20050;-72
2021/04/05 09:12:34;;;;;;;14.70;2.35;;;2.50;89.50;;;;;;5087797;28;20028;-78
2021/04/05 09:15:29;;;;;;;13.63;1.95;;;2.70;90.60;;;;;;5090594;28;20036;-75
2021/04/05 09:18:19;;;;;;;15.05;1.98;;;2.50;89.10;;;;;;5072691;28;20531;-74
2021/04/05 09:21:13;;;;;;;16.23;2.35;;;2.60;90.10;;;;;;5081820;28;20111;-75
2021/04/05 09:23:49;;;;;;;10.10;2.20;;;2.80;87.60;;;;;;5089918;28;20159;-74
2021/04/05 09:26:54;;;;;;;14.68;1.80;;;3.00;81.10;;;;;;5063454;28;20032;-74
2021/04/05 09:29:44;;;;;;;11.85;2.00;;;3.10;77.20;;;;;;5086048;28;20050;-72
2021/04/05 09:32:43;;;;;;;12.85;1.90;;;3.30;75.80;;;;;;5084490;28;20060;-77
2021/04/05 09:35:40;;;;;;;9.57;2.03;;;3.30;74.00;;;;;;5079056;28;20032;-76
2021/04/05 09:38:41;;;;;;;5.30;1.13;;;3.40;72.60;;;;;;5067580;28;20048;-79
2021/04/05 09:41:24;;;;;;;9.82;2.20;;;3.40;68.60;;;;;;5077257;28;20040;-79
2021/04/05 09:44:23;;;;;;;6.18;1.65;;;3.40;67.30;;;;;;5092640;28;20040;-80
2021/04/05 09:47:06;;;;;;;7.22;1.50;;;3.50;71.00;;;;;;5052861;28;20105;-79
2021/04/05 09:49:59;;;;;;;7.00;1.60;;;3.10;71.20;;;;;;5075003;28;20089;-78
2021/04/05 09:52:52;;;;;;;9.02;2.38;;;3.60;73.50;;;;;;5081222;28;20039;-78
2021/04/05 09:55:26;;;;;;;8.77;1.30;;;3.60;70.90;;;;;;5082952;28;20039;-82
2021/04/05 09:58:10;;;;;;;9.73;1.67;;;3.60;69.10;;;;;;5066077;28;20395;-77
2021/04/05 10:00:43;;;;;;;8.45;1.73;;;3.60;67.80;;;;;;5054247;28;20041;-78
2021/04/05 10:03:15;;;;;;;15.55;2.15;;;3.60;69.30;;;;;;5059327;28;20052;-73
2021/04/05 10:05:49;;;;;;;13.07;1.90;;;3.60;79.10;;;;;;5062775;28;20040;-72
2021/04/05 10:08:25;;;;;;;16.98;2.20;;;3.50;81.50;;;;;;5054315;28;20596;-73
2021/04/05 10:10:53;;;;;;;6.65;2.00;;;3.50;78.70;;;;;;5072451;28;20048;-75
2021/04/05 10:13:22;;;;;;;9.57;1.75;;;3.60;77.00;;;;;;5086535;28;20438;-75
2021/04/05 10:15:52;;;;;;;10.68;1.83;;;3.70;76.80;;;;;;5076092;28;20036;-75
2021/04/05 10:18:19;;;;;;;7.20;1.60;;;3.70;77.30;;;;;;5058523;28;20047;-75
2021/04/05 10:20:50;;;;;;;5.88;1.55;;;3.60;70.40;;;;;;5076270;28;20376;-76
2021/04/05 10:23:29;;;;;;;5.72;1.60;;;3.60;69.40;;;;;;5076044;28;20039;-75
2021/04/05 10:26:03;;;;;;;9.23;1.30;;;3.70;71.40;;;;;;5075927;28;20032;-75
2021/04/05 10:28:31;;;;;;;10.38;1.52;;;3.80;70.20;;;;;;5076033;28;20040;-75
2021/04/05 10:30:59;;;;;;;7.05;1.63;;;3.90;71.20;;;;;;5058008;28;20063;-76
2021/04/05 10:33:43;;;;;;;8.70;2.03;;;3.90;70.20;;;;;;5058496;28;20043;-76
2021/04/05 10:36:12;;;;;;;12.55;2.17;;;3.80;72.20;;;;;;5075726;28;20028;-76
2021/04/05 10:38:39;;;;;;;11.43;2.30;;;3.90;76.70;;;;;;5057923;28;20092;-75
2021/04/05 10:41:06;;;;;;;10.55;3.53;;;3.70;80.40;;;;;;5057599;28;20045;-75
2021/04/05 10:43:49;;;;;;;7.65;2.22;;;3.60;84.30;;;;;;5075510;28;20033;-76
2021/04/05 10:46:19;;;;;;;9.85;2.20;;;3.50;81.50;;;;;;5075655;28;20064;-76
2021/04/05 10:48:54;;;;;;;12.48;2.45;;;3.40;84.80;;;;;;5075555;28;20078;-76
2021/04/05 10:51:25;;;;;;;9.40;2.05;;;3.50;87.70;;;;;;5075565;28;20036;-76
2021/04/05 10:54:10;;;;;;;10.98;1.67;;;3.50;88.00;;;;;;5075502;28;20062;-76
2021/04/05 10:56:55;;;;;;;13.63;1.63;;;3.60;86.00;;;;;;5075387;28;20538;-76
2021/04/05 10:59:25;;;;;;;11.88;2.10;;;3.60;83.80;;;;;;5075410;28;20484;-76
2021/04/05 11:01:59;;;;;;;8.48;1.60;;;3.60;85.90;;;;;;5075103;28;20075;-76
2021/04/05 11:04:27;;;;;;;8.73;1.90;;;3.10;93.50;;;;;;5075031;28;20036;-76
2021/04/05 11:06:55;;;;;;;8.05;2.25;;;2.90;92.80;;;;;;5057318;28;20032;-76
2021/04/05 11:09:23;;;;;;;8.77;1.48;;;2.90;91.60;;;;;;5075246;28;20032;-76
2021/04/05 11:11:52;;;;;;;11.32;2.17;;;2.90;91.60;;;;;;5057849;28;20083;-76
2021/04/05 11:14:20;;;;;;;13.88;1.90;;;3.00;90.60;;;;;;5057215;28;20064;-76
2021/04/05 11:17:02;;;;;;;16.08;2.00;;;3.30;87.50;;;;;;5074861;28;20043;-76
2021/04/05 11:19:35;;;;;;;11.65;4.95;;;3.50;85.60;;;;;;5074899;28;20073;-76
2021/04/05 11:22:04;;;;;;;8.95;2.40;;;3.60;86.50;;;;;;5057327;28;20128;-76
2021/04/05 11:24:33;;;;;;;16.15;2.65;;;3.60;85.40;;;;;;5075023;28;20035;-75
2021/04/05 11:27:06;;;;;;;15.93;2.55;;;3.60;84.70;;;;;;5073571;28;20090;-76
2021/04/05 11:29:34;;;;;;;12.18;2.10;;;3.70;86.50;;;;;;5074715;28;20037;-76
2021/04/05 11:32:02;;;;;;;14.63;2.60;;;3.80;83.90;;;;;;5074918;28;20037;-76
2021/04/05 11:34:37;;;;;;;17.23;2.95;;;4.00;82.80;;;;;;5074669;28;20040;-76
2021/04/05 11:37:04;;;;;;;12.90;1.52;;;4.20;80.20;;;;;;5074765;28;20135;-76
2021/04/05 11:39:33;;;;;;;10.30;2.20;;;4.20;76.20;;;;;;5074560;28;20032;-76
2021/04/05 11:42:01;;;;;;;18.92;2.35;;;4.10;77.60;;;;;;5074361;28;20048;-76
2021/04/05 11:44:40;;;;;;;12.25;1.83;;;4.00;76.30;;;;;;5074464;28;20032;-73
2021/04/05 11:47:08;;;;;;;14.02;2.00;;;4.00;79.70;;;;;;5056669;28;20059;-76
2021/04/05 11:49:34;;;;;;;18.90;1.98;;;4.30;80.90;;;;;;5074271;28;20040;-74
2021/04/05 11:52:26;;;;;;;14.68;2.13;;;4.20;80.20;;;;;;5074254;28;20036;-74
2021/04/05 11:54:58;;;;;;;15.27;2.25;;;4.20;80.20;;;;;;5074216;28;20036;-74
2021/04/05 11:57:29;;;;;;;12.20;2.28;;;4.10;81.60;;;;;;5056483;28;20115;-73
2021/04/05 12:00:00;;;;;;;8.05;1.60;;;4.10;86.70;;;;;;5056141;28;20029;-74
2021/04/05 12:02:45;;;;;;;8.32;1.90;;;4.20;87.60;;;;;;5074196;28;20047;-74
2021/04/05 12:05:21;;;;;;;10.85;1.70;;;4.00;87.60;;;;;;5073586;28;20053;-73
2021/04/05 12:07:52;;;;;;;11.18;2.13;;;3.80;88.90;;;;;;5073860;28;20481;-74
2021/04/05 12:10:24;;;;;;;8.75;1.30;;;3.70;89.40;;;;;;5073933;28;20507;-73
2021/04/05 12:13:17;;;;;;;5.97;1.10;;;3.40;89.80;;;;;;5056195;28;20032;-73
2021/04/05 12:15:46;;;;;;;5.82;1.08;;;3.00;90.00;;;;;;5055921;28;20397;-73
2021/04/05 12:18:13;;;;;;;3.20;0.80;;;2.70;88.40;;;;;;5073707;28;20037;-73
2021/04/05 12:20:40;;;;;;;6.70;1.65;;;2.80;90.00;;;;;;5073520;28;20040;-73
2021/04/05 12:23:10;;;;;;;7.63;1.08;;;2.90;87.00;;;;;;5073702;28;20078;-73
2021/04/05 12:25:39;;;;;;;7.35;2.05;;;3.00;86.00;;;;;;5073464;28;20032;-73
2021/04/05 12:28:07;;;;;;;8.27;2.35;;;3.20;85.70;;;;;;5073695;28;20040;-73
2021/04/05 12:30:35;;;;;;;8.32;1.95;;;3.20;87.30;;;;;;5073648;28;20090;-73
2021/04/05 12:33:03;;;;;;;8.65;1.75;;;3.10;89.20;;;;;;5073572;28;20108;-73
2021/04/05 12:35:30;;;;;;;10.00;1.60;;;3.00;90.90;;;;;;5073359;28;20056;-73
2021/04/05 12:37:59;;;;;;;12.32;2.00;;;2.90;92.30;;;;;;5055129;28;20056;-74
2021/04/05 12:40:28;;;;;;;8.40;1.95;;;2.70;93.10;;;;;;5073283;28;20064;-75
2021/04/05 12:43:02;;;;;;;7.80;1.80;;;2.70;92.70;;;;;;5073249;28;20038;-76
2021/04/05 12:45:29;;;;;;;12.23;2.25;;;2.70;92.50;;;;;;5073380;28;20032;-73
2021/04/05 12:47:57;;;;;;;14.32;2.80;;;2.70;92.20;;;;;;5072994;28;20036;-73
2021/04/05 12:50:26;;;;;;;10.82;1.70;;;2.80;92.70;;;;;;5073059;28;20112;-73
2021/04/05 12:52:58;;;;;;;11.75;2.38;;;2.90;91.30;;;;;;5074545;28;20524;-73
2021/04/05 12:55:27;;;;;;;10.30;2.10;;;2.90;90.10;;;;;;5084812;28;20037;-73
2021/04/05 12:57:59;;;;;;;11.45;1.88;;;3.00;90.60;;;;;;5052817;28;20430;-75
2021/04/05 13:00:26;;;;;;;5.70;1.40;;;2.70;90.60;;;;;;5072837;28;20078;-75
2021/04/05 13:03:19;;;;;;;9.73;1.73;;;3.30;90.20;;;;;;5087104;28;20039;-75
2021/04/05 13:06:04;;;;;;;7.97;1.50;;;2.70;91.60;;;;;;5082626;28;20158;-75
2021/04/05 13:08:48;;;;;;;11.35;2.63;;;2.80;91.70;;;;;;5074531;28;20056;-75
2021/04/05 13:11:28;;;;;;;12.00;3.33;;;3.00;92.50;;;;;;5072704;28;20040;-73
2021/04/05 13:14:11;;;;;;;11.30;2.10;;;3.10;92.50;;;;;;5071557;28;20029;-73
2021/04/05 13:16:46;;;;;;;10.48;1.50;;;3.30;92.20;;;;;;5072839;28;20045;-72
2021/04/05 13:19:16;;;;;;;9.88;2.72;;;3.20;91.80;;;;;;5072753;28;20024;-73
2021/04/05 13:21:46;;;;;;;8.95;2.08;;;3.70;93.20;;;;;;5072513;28;20044;-75
2021/04/05 13:24:31;;;;;;;12.20;2.78;;;3.10;93.50;;;;;;5054721;28;20036;-75
2021/04/05 13:27:00;;;;;;;10.45;2.20;;;3.20;93.40;;;;;;5072657;28;20052;-73
2021/04/05 13:29:39;;;;;;;14.90;2.40;;;3.90;92.60;;;;;;5072612;28;20036;-73